createdAt,value
2022-08-20T00:03:35.394Z,4.67
2022-08-20T00:08:43.705Z,4.77
2022-08-20T00:13:53.455Z,4.77
2022-08-20T00:19:03.216Z,5.02
2022-08-20T00:24:11.712Z,5.02
2022-08-20T00:29:22.695Z,4.96
2022-08-20T00:34:31.867Z,4.96
2022-08-20T00:39:41.803Z,4.59
2022-08-20T00:44:52.011Z,4.59
2022-08-20T00:50:01.782Z,4.41
2022-08-20T00:55:11.571Z,4.41
2022-08-20T01:00:22.491Z,4.5
2022-08-20T01:11:41.684Z,4.5
2022-08-20T01:16:52.658Z,4.26
2022-08-20T01:22:03.727Z,4.23
2022-08-20T01:27:13.460Z,4.23
2022-08-20T01:32:21.939Z,4.22
2022-08-20T01:37:31.993Z,4.22
2022-08-20T01:43:00.008Z,4.23
2022-08-20T01:47:55.716Z,4.23
2022-08-20T01:53:02.895Z,4.28
2022-08-20T01:58:19.652Z,4.28
2022-08-20T02:03:22.407Z,4.47
2022-08-20T02:08:31.059Z,4.47
2022-08-20T02:13:39.364Z,4.71
2022-08-20T02:18:50.930Z,4.71
2022-08-20T02:23:58.897Z,4.69
2022-08-20T02:29:08.032Z,4.79
2022-08-20T02:34:23.194Z,4.79
2022-08-20T02:39:26.264Z,4.88
2022-08-20T02:44:36.018Z,4.88
2022-08-20T02:49:46.439Z,4.9
2022-08-20T02:54:55.529Z,4.9
2022-08-20T03:00:05.323Z,4.93
2022-08-20T03:05:13.798Z,4.93
2022-08-20T03:10:23.433Z,5.07
2022-08-20T03:15:31.377Z,5.07
2022-08-20T03:20:39.870Z,5
2022-08-20T03:25:48.975Z,5
2022-08-20T03:31:00.047Z,5.06
2022-08-20T03:36:09.767Z,5.06
2022-08-20T03:41:18.254Z,5.12
2022-08-20T03:46:26.745Z,5.12
2022-08-20T03:51:58.813Z,5.11
2022-08-20T03:56:44.335Z,5.11
2022-08-20T04:01:53.092Z,5.09
2022-08-20T04:07:03.228Z,5.09
2022-08-20T04:12:12.359Z,5.13
2022-08-20T04:17:22.701Z,5.13
2022-08-20T04:22:29.935Z,5.13
2022-08-20T04:27:40.337Z,5.13
2022-08-20T04:32:49.728Z,5.06
2022-08-20T04:37:57.982Z,5.06
2022-08-20T04:43:06.517Z,5.07
2022-08-20T04:48:16.820Z,5.07
2022-08-20T04:53:26.166Z,5.1
2022-08-20T04:58:33.876Z,5.1
2022-08-20T05:03:42.942Z,5.1
2022-08-20T05:08:52.105Z,5.1
2022-08-20T05:14:01.183Z,5.13
2022-08-20T05:19:10.320Z,5.13
2022-08-20T05:24:19.467Z,5.16
2022-08-20T05:29:29.836Z,5.16
2022-08-20T05:34:38.320Z,5.04
2022-08-20T05:39:47.033Z,5.04
2022-08-20T05:44:55.912Z,5.04
2022-08-20T05:50:05.729Z,4.98
2022-08-20T05:55:14.841Z,4.98
2022-08-20T06:00:23.910Z,5.02
2022-08-20T06:05:31.755Z,5.02
2022-08-20T06:10:43.496Z,5.02
2022-08-20T06:15:51.946Z,5.02
2022-08-20T06:21:01.092Z,5.07
2022-08-20T06:26:10.358Z,5.07
2022-08-20T06:31:19.293Z,5.17
2022-08-20T06:36:27.754Z,5.17
2022-08-20T06:41:37.556Z,5.12
2022-08-20T06:46:46.013Z,5.12
2022-08-20T06:51:56.377Z,5.28
2022-08-20T06:57:05.556Z,5.28
2022-08-20T07:02:15.289Z,5.19
2022-08-20T07:07:24.986Z,5.19
2022-08-20T07:12:35.448Z,5.24
2022-08-20T07:17:44.537Z,5.24
2022-08-20T07:22:54.312Z,5.14
2022-08-20T07:28:02.171Z,5.14
2022-08-20T07:33:11.467Z,5.16
2022-08-20T07:38:21.024Z,5.16
2022-08-20T07:43:30.185Z,5.3
2022-08-20T07:48:39.258Z,5.3
2022-08-20T07:53:47.785Z,5.24
2022-08-20T07:58:57.553Z,5.24
2022-08-20T08:04:06.625Z,5.04
2022-08-20T08:09:16.443Z,5.04
2022-08-20T08:14:26.168Z,5.08
2022-08-20T08:19:33.987Z,5.08
2022-08-20T08:24:57.910Z,5.1
2022-08-20T08:29:52.811Z,5.1
2022-08-20T08:35:03.227Z,5.18
2022-08-20T08:40:12.839Z,5.18
2022-08-20T08:45:22.128Z,5.03
2022-08-20T08:50:55.038Z,5.03
2022-08-20T08:55:41.625Z,5.05
2022-08-20T09:01:53.377Z,5.02
2022-08-20T09:06:01.151Z,5.02
2022-08-20T09:11:09.668Z,4.95
2022-08-20T09:16:19.379Z,4.95
2022-08-20T09:21:28.507Z,4.96
2022-08-20T09:26:39.450Z,4.96
2022-08-20T09:31:46.651Z,5.02
2022-08-20T09:36:54.599Z,5.02
2022-08-20T09:42:03.699Z,4.98
2022-08-20T09:47:12.821Z,4.98
2022-08-20T09:52:21.306Z,5.02
2022-08-20T09:57:30.415Z,5.02
2022-08-20T10:02:38.897Z,5.19
2022-08-20T10:07:48.027Z,5.19
2022-08-20T10:12:57.783Z,5.46
2022-08-20T10:18:06.255Z,5.46
2022-08-20T10:23:16.687Z,5.69
2022-08-20T10:28:25.771Z,5.69
2022-08-20T10:33:34.275Z,5.74
2022-08-20T10:38:43.381Z,5.74
2022-08-20T10:43:51.853Z,5.88
2022-08-20T10:49:03.517Z,5.88
2022-08-20T10:54:19.651Z,5.81
2022-08-20T10:59:35.826Z,5.81
2022-08-20T11:04:51.995Z,5.82
2022-08-20T11:10:10.622Z,5.82
2022-08-20T11:15:56.978Z,6.05
2022-08-20T11:16:26.935Z,6.05
2022-08-20T11:21:31.053Z,6.05
2022-08-20T11:22:01.016Z,6.05
2022-08-20T11:26:51.053Z,5.87
2022-08-20T11:27:21.024Z,5.87
2022-08-20T11:32:10.410Z,5.81
2022-08-20T11:32:40.374Z,5.81
2022-08-20T11:37:26.877Z,5.81
2022-08-20T11:37:56.920Z,5.81
2022-08-20T11:43:18.255Z,5.54
2022-08-20T11:45:09.710Z,5.54
2022-08-20T11:50:24.176Z,5.54
2022-08-20T11:51:50.260Z,5.54
2022-08-20T11:55:53.128Z,5.39
2022-08-20T11:59:06.564Z,5.39
2022-08-20T12:04:28.688Z,5.24
2022-08-20T12:10:43.375Z,5.24
2022-08-20T12:11:33.034Z,5.24
2022-08-20T12:16:42.417Z,5.19
2022-08-20T12:24:39.846Z,5.04
2022-08-20T12:27:23.655Z,5.04
2022-08-20T12:32:19.373Z,5.03
2022-08-20T12:39:37.764Z,5.03
2022-08-20T12:40:32.612Z,5.03
2022-08-20T12:44:52.635Z,4.97
2022-08-20T12:50:08.806Z,4.97
2022-08-20T12:57:16.430Z,4.94
2022-08-20T13:05:57.255Z,4.93
2022-08-20T13:11:12.808Z,4.93
2022-08-20T13:15:40.218Z,4.93
2022-08-20T13:20:21.400Z,4.93
2022-08-20T13:25:31.708Z,4.96
2022-08-20T13:30:40.807Z,4.96
2022-08-20T13:35:53.127Z,4.88
2022-08-20T13:41:03.557Z,4.88
2022-08-20T13:46:14.586Z,4.86
2022-08-20T13:51:30.849Z,4.86
2022-08-20T13:56:36.659Z,4.92
2022-08-20T14:01:48.569Z,4.92
2022-08-20T14:07:00.653Z,4.67
2022-08-20T14:12:09.133Z,4.67
2022-08-20T14:17:20.177Z,4.8
2022-08-20T14:22:32.450Z,4.75
2022-08-20T14:27:42.280Z,4.75
2022-08-20T14:32:52.033Z,4.72
2022-08-20T14:38:05.670Z,4.72
2022-08-20T14:43:10.285Z,4.7
2022-08-20T14:48:20.012Z,4.7
2022-08-20T14:53:31.053Z,4.87
2022-08-20T14:58:40.875Z,4.87
2022-08-20T15:03:55.695Z,4.68
2022-08-20T15:09:06.766Z,4.68
2022-08-20T15:14:19.678Z,4.68
2022-08-20T15:19:24.991Z,4.68
2022-08-20T15:24:34.753Z,4.62
2022-08-20T15:29:43.855Z,4.62
2022-08-20T15:34:55.470Z,4.53
2022-08-20T15:40:02.287Z,4.53
2022-08-20T15:45:22.502Z,4.43
2022-08-20T15:50:45.938Z,4.43
2022-08-20T15:55:56.329Z,4.45
2022-08-20T16:01:26.283Z,4.45
2022-08-20T16:06:15.224Z,4.51
2022-08-20T16:11:24.969Z,4.51
2022-08-20T16:16:37.299Z,4.46
2022-08-20T16:21:46.429Z,4.46
2022-08-20T16:27:13.483Z,4.47
2022-08-20T16:32:22.564Z,4.47
2022-08-20T16:37:31.698Z,4.41
2022-08-20T16:42:40.174Z,4.41
2022-08-20T16:47:48.648Z,4.44
2022-08-20T16:52:59.122Z,4.44
2022-08-20T16:58:06.896Z,4.5
2022-08-20T17:03:16.012Z,4.5
2022-08-20T17:08:29.401Z,4.53
2022-08-20T17:13:36.130Z,4.62
2022-08-20T17:18:52.336Z,4.62
2022-08-20T17:24:07.153Z,4.53
2022-08-20T17:29:21.446Z,4.53
2022-08-20T17:34:36.936Z,4.5
2022-08-20T17:39:51.923Z,4.5
2022-08-20T17:45:07.981Z,4.51
2022-08-20T17:50:24.135Z,4.51
2022-08-20T17:55:39.649Z,4.51
2022-08-20T18:01:19.732Z,4.51
2022-08-20T18:06:13.286Z,4.5
2022-08-20T18:10:39.413Z,4.5
2022-08-20T18:15:25.127Z,4.5
2022-08-20T18:20:27.723Z,4.5
2022-08-20T18:25:37.517Z,4.5
2022-08-20T18:30:48.495Z,4.5
2022-08-20T18:35:58.264Z,4.49
2022-08-20T18:41:06.736Z,4.49
2022-08-20T18:46:16.504Z,4.48
2022-08-20T18:51:26.252Z,4.48
2022-08-20T18:56:36.674Z,4.46
2022-08-20T19:01:47.442Z,4.46
2022-08-20T19:06:58.123Z,4.45
2022-08-20T19:12:04.016Z,4.45
2022-08-20T19:17:13.138Z,4.45
2022-08-20T19:22:21.622Z,4.45
2022-08-20T19:27:31.370Z,4.42
2022-08-20T19:32:51.561Z,4.42
2022-08-20T19:37:52.048Z,4.42
2022-08-20T19:43:00.338Z,4.42
2022-08-20T19:48:10.419Z,4.39
2022-08-20T19:53:31.240Z,4.39
2022-08-20T19:58:27.387Z,4.41
2022-08-20T20:03:36.501Z,4.41
2022-08-20T20:08:44.988Z,4.44
2022-08-20T20:13:54.100Z,4.44
2022-08-20T20:19:28.819Z,4.4
2022-08-20T20:24:11.763Z,4.4
2022-08-20T20:29:21.470Z,4.36
2022-08-20T20:34:30.593Z,4.37
2022-08-20T20:39:39.978Z,4.37
2022-08-20T20:44:48.832Z,4.31
2022-08-20T20:49:59.209Z,4.31
2022-08-20T20:55:08.353Z,4.35
2022-08-20T21:00:17.483Z,4.35
2022-08-20T21:05:27.229Z,4.33
2022-08-20T21:10:35.698Z,4.33
2022-08-20T21:15:44.806Z,4.36
2022-08-20T21:20:54.598Z,4.36
2022-08-20T21:26:04.338Z,4.38
2022-08-20T21:31:17.279Z,4.38
2022-08-20T21:36:31.522Z,4.37
2022-08-20T21:41:48.421Z,4.37
2022-08-20T21:47:09.612Z,4.36
2022-08-20T21:52:19.368Z,4.36
2022-08-20T21:57:35.504Z,4.34
2022-08-20T22:02:50.467Z,4.34
2022-08-20T22:08:05.254Z,4.37
2022-08-20T22:13:23.338Z,4.37
2022-08-20T22:18:38.247Z,4.33
2022-08-20T22:23:54.379Z,4.33
2022-08-20T22:29:09.260Z,4.32
2022-08-20T22:34:25.621Z,4.32
2022-08-20T22:39:41.605Z,4.29
2022-08-20T22:45:16.168Z,4.29
2022-08-20T22:50:13.286Z,4.3
2022-08-20T22:55:29.407Z,4.3
2022-08-20T23:00:45.084Z,4.32
2022-08-20T23:06:00.489Z,4.32
2022-08-20T23:11:16.609Z,4.3
2022-08-20T23:16:30.854Z,4.3
2022-08-20T23:21:47.046Z,4.3
2022-08-20T23:27:01.254Z,4.28
2022-08-20T23:32:18.057Z,4.28
2022-08-20T23:36:44.246Z,4.29
2022-08-20T23:41:23.376Z,4.29
2022-08-20T23:46:32.493Z,4.28
2022-08-20T23:51:42.262Z,4.28
2022-08-20T23:56:50.741Z,4.3
